createdAt,value
2023-10-05T00:02:09.577Z,9.33
2023-10-05T00:04:43.293Z,10.50
2023-10-05T00:07:24.774Z,5.53
2023-10-05T00:09:53.468Z,7.77
2023-10-05T00:12:24.147Z,6.53
2023-10-05T00:15:10.077Z,4.83
2023-10-05T00:17:40.523Z,5.50
2023-10-05T00:20:12.229Z,8.43
2023-10-05T00:22:41.452Z,7.53
2023-10-05T00:25:11.160Z,6.80
2023-10-05T00:27:40.183Z,6.77
2023-10-05T00:30:09.212Z,6.60
2023-10-05T00:32:39.427Z,7.53
2023-10-05T00:35:19.497Z,5.10
2023-10-05T00:37:48.382Z,6.50
2023-10-05T00:40:27.789Z,5.27
2023-10-05T00:42:56.676Z,6.53
2023-10-05T00:45:26.189Z,6.10
2023-10-05T00:48:03.021Z,5.73
2023-10-05T00:50:35.143Z,4.83
2023-10-05T00:53:04.653Z,5.00
2023-10-05T00:55:35.725Z,4.90
2023-10-05T00:58:13.580Z,6.03
2023-10-05T01:00:51.773Z,8.30
2023-10-05T01:03:27.708Z,6.13
2023-10-05T01:06:12.640Z,6.57
2023-10-05T01:08:55.413Z,7.67
2023-10-05T01:11:34.873Z,6.97
2023-10-05T01:14:03.326Z,4.87
2023-10-05T01:16:33.780Z,10.73
2023-10-05T01:19:03.601Z,6.13
2023-10-05T01:21:35.221Z,6.47
2023-10-05T01:24:05.309Z,6.50
2023-10-05T01:26:36.126Z,4.20
2023-10-05T01:29:04.339Z,5.17
2023-10-05T01:31:33.904Z,4.80
2023-10-05T01:34:03.098Z,6.53
2023-10-05T01:36:31.091Z,5.00
2023-10-05T01:39:05.526Z,5.10
2023-10-05T01:41:34.990Z,4.40
2023-10-05T01:44:05.394Z,4.33
2023-10-05T01:46:35.269Z,4.33
2023-10-05T01:49:03.588Z,4.33
2023-10-05T01:51:31.628Z,4.93
2023-10-05T01:54:12.107Z,6.00
2023-10-05T01:56:49.009Z,5.07
2023-10-05T01:59:22.537Z,4.80
2023-10-05T02:01:51.249Z,5.03
2023-10-05T02:04:21.856Z,6.37
2023-10-05T02:06:50.949Z,5.13
2023-10-05T02:09:21.105Z,4.50
2023-10-05T02:11:51.078Z,4.37
2023-10-05T02:14:19.429Z,6.27
2023-10-05T02:16:51.258Z,4.83
2023-10-05T02:19:20.521Z,6.77
2023-10-05T02:21:52.941Z,4.87
2023-10-05T02:24:23.919Z,5.57
2023-10-05T02:27:11.448Z,6.13
2023-10-05T02:29:43.977Z,5.40
2023-10-05T02:32:16.189Z,4.93
2023-10-05T02:34:46.051Z,5.43
2023-10-05T02:37:20.670Z,9.50
2023-10-05T02:39:50.097Z,5.17
2023-10-05T02:42:22.417Z,5.40
2023-10-05T02:44:51.126Z,5.00
2023-10-05T02:47:24.361Z,6.90
2023-10-05T02:49:52.647Z,6.03
2023-10-05T02:52:21.824Z,6.13
2023-10-05T02:54:50.280Z,3.63
2023-10-05T02:57:21.082Z,8.70
2023-10-05T02:59:51.226Z,7.20
2023-10-05T03:02:19.830Z,7.10
2023-10-05T03:04:48.982Z,5.13
2023-10-05T03:07:26.266Z,5.10
2023-10-05T03:10:00.461Z,5.60
2023-10-05T03:12:33.498Z,6.37
2023-10-05T03:15:08.446Z,7.00
2023-10-05T03:17:39.409Z,6.50
2023-10-05T03:20:10.654Z,9.37
2023-10-05T03:22:38.706Z,5.17
2023-10-05T03:25:08.078Z,5.40
2023-10-05T03:27:37.544Z,5.97
2023-10-05T03:30:07.681Z,5.50
2023-10-05T03:32:37.175Z,7.10
2023-10-05T03:35:09.960Z,6.00
2023-10-05T03:37:40.713Z,5.50
2023-10-05T03:40:21.000Z,5.40
2023-10-05T03:42:58.246Z,6.67
2023-10-05T03:45:30.415Z,7.83
2023-10-05T03:47:58.506Z,6.23
2023-10-05T03:50:26.982Z,9.93
2023-10-05T03:52:55.830Z,12.13
2023-10-05T03:55:26.129Z,6.50
2023-10-05T03:57:58.684Z,8.13
2023-10-05T04:00:33.339Z,6.97
2023-10-05T04:03:02.283Z,11.23
2023-10-05T04:05:31.828Z,5.77
2023-10-05T04:08:12.348Z,7.83
2023-10-05T04:10:47.634Z,7.93
2023-10-05T04:13:23.171Z,5.83
2023-10-05T04:15:53.164Z,7.90
2023-10-05T04:18:22.343Z,5.10
2023-10-05T04:20:54.241Z,8.07
2023-10-05T04:23:27.102Z,5.73
2023-10-05T04:25:56.025Z,6.33
2023-10-05T04:28:33.853Z,6.43
2023-10-05T04:31:02.346Z,4.73
2023-10-05T04:33:30.462Z,6.57
2023-10-05T04:35:58.458Z,5.90
2023-10-05T04:38:26.630Z,6.23
2023-10-05T04:40:55.702Z,5.93
2023-10-05T04:43:25.168Z,7.70
2023-10-05T04:45:53.507Z,4.90
2023-10-05T04:48:21.465Z,5.33
2023-10-05T04:50:50.842Z,5.27
2023-10-05T04:53:21.306Z,5.87
2023-10-05T04:55:54.609Z,8.20
2023-10-05T04:58:32.422Z,5.60
2023-10-05T05:01:29.722Z,7.30
2023-10-05T05:03:57.981Z,5.37
2023-10-05T05:06:28.404Z,5.67
2023-10-05T05:08:56.501Z,7.43
2023-10-05T05:11:24.381Z,5.50
2023-10-05T05:13:52.443Z,9.43
2023-10-05T05:16:22.016Z,6.67
2023-10-05T05:18:50.212Z,5.70
2023-10-05T05:21:18.188Z,7.13
2023-10-05T05:23:48.257Z,9.30
2023-10-05T05:26:16.277Z,6.80
2023-10-05T05:28:45.239Z,5.27
2023-10-05T05:31:17.914Z,6.90
2023-10-05T05:33:47.729Z,6.37
2023-10-05T05:36:15.718Z,6.93
2023-10-05T05:38:49.225Z,7.63
2023-10-05T05:41:20.330Z,6.40
2023-10-05T05:43:49.162Z,6.03
2023-10-05T05:46:18.013Z,4.73
2023-10-05T05:48:50.169Z,10.63
2023-10-05T05:51:19.151Z,6.63
2023-10-05T05:53:48.095Z,6.30
2023-10-05T05:56:18.463Z,7.77
2023-10-05T05:58:47.861Z,5.87
2023-10-05T06:01:20.049Z,7.70
2023-10-05T06:03:50.249Z,7.53
2023-10-05T06:06:20.302Z,6.30
2023-10-05T06:08:49.066Z,7.67
2023-10-05T06:11:16.999Z,6.10
2023-10-05T06:13:46.752Z,6.30
2023-10-05T06:16:15.416Z,5.40
2023-10-05T06:18:44.660Z,7.47
2023-10-05T06:21:14.344Z,6.60
2023-10-05T06:23:42.255Z,6.60
2023-10-05T06:26:11.145Z,8.97
2023-10-05T06:28:40.368Z,6.53
2023-10-05T06:31:12.161Z,8.03
2023-10-05T06:33:43.330Z,5.60
2023-10-05T06:36:11.390Z,5.53
2023-10-05T06:38:40.655Z,5.07
2023-10-05T06:41:09.046Z,5.60
2023-10-05T06:43:37.324Z,6.93
2023-10-05T06:46:11.416Z,6.63
2023-10-05T06:48:41.314Z,5.30
2023-10-05T06:51:09.297Z,5.40
2023-10-05T06:53:38.731Z,4.97
2023-10-05T06:56:08.152Z,3.20
2023-10-05T06:58:37.361Z,7.20
2023-10-05T07:01:06.216Z,4.27
2023-10-05T07:03:34.457Z,4.93
2023-10-05T07:06:02.760Z,4.13
2023-10-05T07:08:30.756Z,5.40
2023-10-05T07:10:58.948Z,6.50
2023-10-05T07:13:29.922Z,5.57
2023-10-05T07:15:58.749Z,4.93
2023-10-05T07:18:26.716Z,7.13
2023-10-05T07:20:54.754Z,6.13
2023-10-05T07:23:22.746Z,6.97
2023-10-05T07:25:50.697Z,6.40
2023-10-05T07:28:18.882Z,4.87
2023-10-05T07:30:48.919Z,7.57
2023-10-05T07:33:17.091Z,9.60
2023-10-05T07:35:45.366Z,11.97
2023-10-05T07:38:15.777Z,7.97
2023-10-05T07:40:44.149Z,6.33
2023-10-05T07:43:13.198Z,4.80
2023-10-05T07:45:42.369Z,7.00
2023-10-05T07:48:13.089Z,6.83
2023-10-05T07:50:41.301Z,7.83
2023-10-05T07:53:10.307Z,6.30
2023-10-05T07:55:38.365Z,6.13
2023-10-05T07:58:07.176Z,8.47
2023-10-05T08:00:35.906Z,7.20
2023-10-05T08:03:04.753Z,5.20
2023-10-05T08:05:36.238Z,5.33
2023-10-05T08:08:06.194Z,5.77
2023-10-05T08:10:34.281Z,6.83
2023-10-05T08:13:04.893Z,5.80
2023-10-05T08:15:33.680Z,8.37
2023-10-05T08:18:01.556Z,9.27
2023-10-05T08:20:29.632Z,7.50
2023-10-05T08:22:58.950Z,6.00
2023-10-05T08:25:27.178Z,13.20
2023-10-05T08:27:56.706Z,8.90
2023-10-05T08:30:26.070Z,9.30
2023-10-05T08:32:58.812Z,6.50
2023-10-05T08:35:30.009Z,5.90
2023-10-05T08:38:00.399Z,6.90
2023-10-05T08:40:38.586Z,8.83
2023-10-05T08:43:12.265Z,7.07
2023-10-05T08:45:48.561Z,7.47
2023-10-05T08:48:21.088Z,9.33
2023-10-05T08:50:53.245Z,5.23
2023-10-05T08:53:26.379Z,5.03
2023-10-05T08:55:55.175Z,4.13
2023-10-05T08:58:23.780Z,6.13
2023-10-05T09:00:52.531Z,5.93
2023-10-05T09:03:36.552Z,5.93
2023-10-05T09:06:17.142Z,4.77
2023-10-05T09:09:02.773Z,5.80
2023-10-05T09:11:34.456Z,24.40
2023-10-05T09:14:13.521Z,10.33
2023-10-05T09:16:46.179Z,5.90
2023-10-05T09:19:18.799Z,5.27
2023-10-05T09:21:52.183Z,8.00
2023-10-05T09:24:23.501Z,5.63
2023-10-05T09:26:55.931Z,8.00
2023-10-05T09:29:29.129Z,8.00
2023-10-05T09:31:59.381Z,4.53
2023-10-05T09:34:42.822Z,3.60
2023-10-05T09:37:12.862Z,5.40
2023-10-05T09:39:50.279Z,8.67
2023-10-05T09:42:23.858Z,9.77
2023-10-05T09:44:54.160Z,6.10
2023-10-05T09:47:26.341Z,5.73
2023-10-05T09:50:01.780Z,8.30
2023-10-05T09:52:36.347Z,6.07
2023-10-05T09:55:08.054Z,4.57
2023-10-05T09:57:42.612Z,4.20
2023-10-05T10:00:28.986Z,8.03
2023-10-05T10:02:59.418Z,12.07
2023-10-05T10:05:36.348Z,5.90
2023-10-05T10:08:13.443Z,5.13
2023-10-05T10:10:53.114Z,3.80
2023-10-05T10:13:23.551Z,7.13
2023-10-05T10:15:55.146Z,5.03
2023-10-05T10:18:38.738Z,5.73
2023-10-05T10:21:14.291Z,6.57
2023-10-05T10:23:46.100Z,6.90
2023-10-05T10:26:21.987Z,7.50
2023-10-05T10:29:09.258Z,6.23
2023-10-05T10:31:43.943Z,6.53
2023-10-05T10:34:20.242Z,8.40
2023-10-05T10:36:53.278Z,4.40
2023-10-05T10:39:25.820Z,4.60
2023-10-05T10:42:08.485Z,6.57
2023-10-05T10:44:58.456Z,3.63
2023-10-05T10:47:28.395Z,4.50
2023-10-05T10:50:11.815Z,6.37
2023-10-05T10:52:40.385Z,5.87
2023-10-05T10:55:15.279Z,6.00
2023-10-05T10:57:47.931Z,5.47
2023-10-05T11:00:34.884Z,5.90
2023-10-05T11:03:12.848Z,6.80
2023-10-05T11:05:41.395Z,5.53
2023-10-05T11:08:11.072Z,7.10
2023-10-05T11:10:41.334Z,12.57
2023-10-05T11:13:16.409Z,9.17
2023-10-05T11:15:59.496Z,7.00
2023-10-05T11:18:31.722Z,6.23
2023-10-05T11:21:07.708Z,7.20
2023-10-05T11:23:45.027Z,8.10
2023-10-05T11:26:19.887Z,6.50
2023-10-05T11:28:50.736Z,6.30
2023-10-05T11:31:40.193Z,8.43
2023-10-05T11:35:09.075Z,5.43
2023-10-05T11:37:02.735Z,9.47
2023-10-05T11:39:40.285Z,5.90
2023-10-05T11:42:12.103Z,10.47
2023-10-05T11:44:45.753Z,4.87
2023-10-05T11:47:24.732Z,5.43
2023-10-05T11:49:53.017Z,5.07
2023-10-05T11:52:24.492Z,5.03
2023-10-05T11:54:52.844Z,6.40
2023-10-05T11:57:21.359Z,4.70
2023-10-05T11:59:50.795Z,5.80
2023-10-05T12:02:23.322Z,4.87
2023-10-05T12:04:51.577Z,4.70
2023-10-05T12:07:19.615Z,5.90
2023-10-05T12:09:48.325Z,4.77
2023-10-05T12:12:16.323Z,5.60
2023-10-05T12:14:44.250Z,6.10
2023-10-05T12:17:13.509Z,4.90
2023-10-05T12:19:41.494Z,8.03
2023-10-05T12:22:15.032Z,8.03
2023-10-05T12:24:43.243Z,6.77
2023-10-05T12:27:20.073Z,5.00
2023-10-05T12:29:48.228Z,4.63
2023-10-05T12:32:17.602Z,3.97
2023-10-05T12:34:49.414Z,5.60
2023-10-05T12:37:19.041Z,6.83
2023-10-05T12:39:47.554Z,4.97
2023-10-05T12:42:15.710Z,5.90
2023-10-05T12:44:43.905Z,5.67
2023-10-05T12:47:11.898Z,5.80
2023-10-05T12:49:42.110Z,3.60
2023-10-05T12:52:10.622Z,5.50
2023-10-05T12:54:43.649Z,6.00
2023-10-05T12:59:43.804Z,5.43
2023-10-05T13:02:16.509Z,6.47
2023-10-05T13:04:46.501Z,4.37
2023-10-05T13:07:17.748Z,9.10
2023-10-05T13:09:47.443Z,3.47
2023-10-05T13:12:15.733Z,5.07
2023-10-05T13:14:43.652Z,3.33
2023-10-05T13:17:13.700Z,3.77
2023-10-05T13:19:42.527Z,9.70
2023-10-05T13:22:12.913Z,6.07
2023-10-05T13:24:42.202Z,7.40
2023-10-05T13:27:10.383Z,3.87
2023-10-05T13:29:43.960Z,4.30
2023-10-05T13:32:13.707Z,4.23
2023-10-05T13:34:47.166Z,5.83
2023-10-05T13:37:20.710Z,4.50
2023-10-05T13:39:49.124Z,4.27
2023-10-05T13:42:26.773Z,3.20
2023-10-05T13:44:55.833Z,4.70
2023-10-05T13:47:28.526Z,5.00
2023-10-05T13:50:09.062Z,4.60
2023-10-05T13:52:40.037Z,4.37
2023-10-05T13:55:09.346Z,6.10
2023-10-05T13:57:38.416Z,4.07
2023-10-05T14:00:18.985Z,4.60
2023-10-05T14:02:47.392Z,3.70
2023-10-05T14:05:15.526Z,4.70
2023-10-05T14:07:45.921Z,6.67
2023-10-05T14:10:13.943Z,4.33
2023-10-05T14:12:42.279Z,3.80
2023-10-05T14:15:11.886Z,5.07
2023-10-05T14:17:39.843Z,4.67
2023-10-05T14:20:08.978Z,4.57
2023-10-05T14:22:36.975Z,4.10
2023-10-05T14:25:08.821Z,7.33
2023-10-05T14:27:47.654Z,6.33
2023-10-05T14:30:21.383Z,5.70
2023-10-05T14:32:51.494Z,10.20
2023-10-05T14:35:20.668Z,5.53
2023-10-05T14:37:51.287Z,7.53
2023-10-05T14:40:23.692Z,5.00
2023-10-05T14:42:53.947Z,5.57
2023-10-05T14:45:23.067Z,8.03
2023-10-05T14:47:52.759Z,6.57
2023-10-05T14:50:21.224Z,7.10
2023-10-05T14:52:51.152Z,6.83
2023-10-05T14:55:21.492Z,3.30
2023-10-05T14:57:49.638Z,6.13
2023-10-05T15:00:18.497Z,3.70
2023-10-05T15:02:46.531Z,8.03
2023-10-05T15:05:15.192Z,6.00
2023-10-05T15:07:44.594Z,5.63
2023-10-05T15:10:21.009Z,4.20
2023-10-05T15:12:50.630Z,4.13
2023-10-05T15:15:20.470Z,5.00
2023-10-05T15:17:50.137Z,3.90
2023-10-05T15:20:18.759Z,5.27
2023-10-05T15:22:46.793Z,4.40
2023-10-05T15:25:20.913Z,6.40
2023-10-05T15:27:51.460Z,5.00
2023-10-05T15:30:22.316Z,3.17
2023-10-05T15:32:51.405Z,4.20
2023-10-05T15:35:20.577Z,7.17
2023-10-05T15:37:52.724Z,5.70
2023-10-05T15:40:21.450Z,4.87
2023-10-05T15:43:00.479Z,6.93
2023-10-05T15:45:29.171Z,5.00
2023-10-05T15:47:58.453Z,7.27
2023-10-05T15:50:33.045Z,5.63
2023-10-05T15:53:05.603Z,6.37
2023-10-05T15:55:33.563Z,5.97
2023-10-05T15:58:10.438Z,4.73
2023-10-05T16:00:39.541Z,5.80
2023-10-05T16:03:11.352Z,6.30
2023-10-05T16:05:43.940Z,5.20
2023-10-05T16:08:18.480Z,6.50
2023-10-05T16:10:47.443Z,5.80
2023-10-05T16:13:19.848Z,6.00
2023-10-05T16:15:55.547Z,11.57
2023-10-05T16:18:23.501Z,5.33
2023-10-05T16:20:51.438Z,7.53
2023-10-05T16:23:22.344Z,8.57
2023-10-05T16:25:53.324Z,8.17
2023-10-05T16:28:22.712Z,12.10
2023-10-05T16:30:50.965Z,12.80
2023-10-05T16:33:19.498Z,13.30
2023-10-05T16:35:49.449Z,10.80
2023-10-05T16:38:19.827Z,12.00
2023-10-05T16:40:47.806Z,15.13
2023-10-05T16:43:15.720Z,18.50
2023-10-05T16:45:45.988Z,15.87
2023-10-05T16:48:16.790Z,12.60
2023-10-05T16:50:44.793Z,11.83
2023-10-05T16:53:12.814Z,14.07
2023-10-05T16:55:44.324Z,9.20
2023-10-05T16:58:12.297Z,14.20
2023-10-05T17:00:43.114Z,12.50
2023-10-05T17:03:12.787Z,10.00
2023-10-05T17:05:40.929Z,9.47
2023-10-05T17:08:08.867Z,6.20
2023-10-05T17:10:37.310Z,9.67
2023-10-05T17:13:05.627Z,9.10
2023-10-05T17:15:33.624Z,7.80
2023-10-05T17:18:03.117Z,6.10
2023-10-05T17:20:33.444Z,11.17
2023-10-05T17:23:01.605Z,10.30
2023-10-05T17:25:30.044Z,8.23
2023-10-05T17:27:58.181Z,7.90
2023-10-05T17:30:26.210Z,7.30
2023-10-05T17:32:54.149Z,8.17
2023-10-05T17:35:24.220Z,11.60
2023-10-05T17:37:57.046Z,11.00
2023-10-05T17:40:25.175Z,11.17
2023-10-05T17:42:53.839Z,8.80
2023-10-05T17:45:22.235Z,8.90
2023-10-05T17:47:50.639Z,14.67
2023-10-05T17:50:18.845Z,14.20
2023-10-05T17:52:46.978Z,17.90
2023-10-05T17:55:17.595Z,14.53
2023-10-05T17:57:45.776Z,15.33
2023-10-05T18:00:17.788Z,16.07
2023-10-05T18:02:46.524Z,17.70
2023-10-05T18:05:17.076Z,13.33
2023-10-05T18:07:46.622Z,20.77
2023-10-05T18:10:16.560Z,14.93
2023-10-05T18:12:44.458Z,9.50
2023-10-05T18:15:14.395Z,17.27
2023-10-05T18:17:42.323Z,17.17
2023-10-05T18:20:15.964Z,15.47
2023-10-05T18:22:44.782Z,10.40
2023-10-05T18:25:12.727Z,12.30
2023-10-05T18:27:42.146Z,10.40
2023-10-05T18:30:12.591Z,6.20
2023-10-05T18:32:40.630Z,8.40
2023-10-05T18:35:09.327Z,6.73
2023-10-05T18:37:38.312Z,7.13
2023-10-05T18:40:07.607Z,7.77
2023-10-05T18:42:35.644Z,7.77
2023-10-05T18:45:07.886Z,7.60
2023-10-05T18:47:36.034Z,8.93
2023-10-05T18:50:04.848Z,12.50
2023-10-05T18:52:35.683Z,11.83
2023-10-05T18:55:04.650Z,9.80
2023-10-05T18:57:32.687Z,12.10
2023-10-05T19:00:01.977Z,13.07
2023-10-05T19:02:31.935Z,11.13
2023-10-05T19:05:01.927Z,27.43
2023-10-05T19:07:30.036Z,18.30
2023-10-05T19:09:58.028Z,11.50
2023-10-05T19:12:28.572Z,12.50
2023-10-05T19:14:56.653Z,12.03
2023-10-05T19:17:24.720Z,10.30
2023-10-05T19:19:54.441Z,10.83
2023-10-05T19:22:22.339Z,13.63
2023-10-05T19:24:50.316Z,11.00
2023-10-05T19:27:18.564Z,12.60
2023-10-05T19:29:47.853Z,12.50
2023-10-05T19:32:15.857Z,9.23
2023-10-05T19:34:43.784Z,9.40
2023-10-05T19:37:13.047Z,13.70
2023-10-05T19:39:41.051Z,10.27
2023-10-05T19:42:09.016Z,9.87
2023-10-05T19:44:36.966Z,10.50
2023-10-05T19:47:08.918Z,10.77
2023-10-05T19:49:37.725Z,9.70
2023-10-05T19:52:06.363Z,12.17
2023-10-05T19:54:35.624Z,8.70
2023-10-05T19:57:04.083Z,9.07
2023-10-05T19:59:32.205Z,10.90
2023-10-05T20:02:00.294Z,9.43
2023-10-05T20:04:30.656Z,10.40
2023-10-05T20:06:58.908Z,9.93
2023-10-05T20:09:27.789Z,6.23
2023-10-05T20:11:57.043Z,8.70
2023-10-05T20:14:25.019Z,8.20
2023-10-05T20:16:52.994Z,11.23
2023-10-05T20:19:20.922Z,10.50
2023-10-05T20:21:51.127Z,8.63
2023-10-05T20:24:19.297Z,9.23
2023-10-05T20:26:47.131Z,6.20
2023-10-05T20:29:17.965Z,8.90
2023-10-05T20:31:45.947Z,12.20
2023-10-05T20:34:16.229Z,12.20
2023-10-05T20:36:48.251Z,9.40
2023-10-05T20:39:20.218Z,8.70
2023-10-05T20:41:48.097Z,8.70
2023-10-05T20:44:17.352Z,8.80
2023-10-05T20:46:45.376Z,13.77
2023-10-05T20:49:13.282Z,12.10
2023-10-05T20:51:41.680Z,13.10
2023-10-05T20:54:10.577Z,26.03
2023-10-05T20:56:38.522Z,20.40
2023-10-05T20:59:06.427Z,29.23
2023-10-05T21:01:35.904Z,16.93
2023-10-05T21:04:04.067Z,11.60
2023-10-05T21:06:31.934Z,9.70
2023-10-05T21:09:00.079Z,13.30
2023-10-05T21:11:28.133Z,9.40
2023-10-05T21:13:55.976Z,10.67
2023-10-05T21:16:24.032Z,9.87
2023-10-05T21:18:54.466Z,12.73
2023-10-05T21:21:22.533Z,6.40
2023-10-05T21:23:50.379Z,11.10
2023-10-05T21:26:18.289Z,6.90
2023-10-05T21:28:46.547Z,12.90
2023-10-05T21:31:14.865Z,11.67
2023-10-05T21:33:42.810Z,9.53
2023-10-05T21:36:13.684Z,9.77
2023-10-05T21:38:42.200Z,8.07
2023-10-05T21:41:10.939Z,12.20
2023-10-05T21:43:38.846Z,10.83
2023-10-05T21:46:06.715Z,8.53
2023-10-05T21:48:34.961Z,10.47
2023-10-05T21:51:03.083Z,11.30
2023-10-05T21:53:32.409Z,9.17
2023-10-05T21:56:00.817Z,10.63
2023-10-05T21:58:28.791Z,10.03
2023-10-05T22:00:56.923Z,9.00
2023-10-05T22:03:25.087Z,9.23
2023-10-05T22:05:52.976Z,11.13
2023-10-05T22:08:21.011Z,9.40
2023-10-05T22:10:50.672Z,8.90
2023-10-05T22:13:18.646Z,9.10
2023-10-05T22:15:46.936Z,9.73
2023-10-05T22:18:14.926Z,11.63
2023-10-05T22:20:42.939Z,8.40
2023-10-05T22:23:11.582Z,9.97
2023-10-05T22:25:42.200Z,9.40
2023-10-05T22:28:12.180Z,9.80
2023-10-05T22:30:40.431Z,8.50
2023-10-05T22:33:09.018Z,11.47
2023-10-05T22:35:38.737Z,9.23
2023-10-05T22:38:06.930Z,8.23
2023-10-05T22:40:36.508Z,10.27
2023-10-05T22:43:04.864Z,11.70
2023-10-05T22:45:34.878Z,9.53
2023-10-05T22:48:03.564Z,8.40
2023-10-05T22:50:31.659Z,9.53
2023-10-05T22:52:59.528Z,9.60
2023-10-05T22:55:27.504Z,10.60
2023-10-05T22:57:59.233Z,12.40
2023-10-05T23:00:27.169Z,26.53
2023-10-05T23:02:56.578Z,25.77
2023-10-05T23:05:24.868Z,10.83
2023-10-05T23:07:56.281Z,9.10
2023-10-05T23:10:24.213Z,8.53
2023-10-05T23:12:52.100Z,9.83
2023-10-05T23:15:20.361Z,8.23
2023-10-05T23:17:48.418Z,9.60
2023-10-05T23:20:25.301Z,10.23
2023-10-05T23:22:54.359Z,7.63
2023-10-05T23:25:23.423Z,10.53
2023-10-05T23:27:53.190Z,8.73
2023-10-05T23:30:22.461Z,12.80
2023-10-05T23:32:51.031Z,9.13
2023-10-05T23:35:21.361Z,11.13
2023-10-05T23:37:52.962Z,8.87
2023-10-05T23:40:22.639Z,10.27
2023-10-05T23:42:50.772Z,7.80
2023-10-05T23:45:22.170Z,9.90
2023-10-05T23:47:50.560Z,9.33
2023-10-05T23:50:26.492Z,6.33
2023-10-05T23:52:56.784Z,11.20
2023-10-05T23:55:25.351Z,7.93
2023-10-05T23:57:53.870Z,9.80
